sensor_id;sensor_type;location;lat;lon;timestamp;pressure;altitude;pressure_sealevel;temperature;humidity
64352;BME280;50680;52.626;-8.668;2023-05-20T00:02:14;103077.59;;;13.95;100.00
64352;BME280;50680;52.626;-8.668;2023-05-20T00:04:41;103070.22;;;14.03;100.00
64352;BME280;50680;52.626;-8.668;2023-05-20T00:07:09;103067.13;;;13.91;100.00
64352;BME280;50680;52.626;-8.668;2023-05-20T00:09:38;103063.78;;;13.86;100.00
64352;BME280;50680;52.626;-8.668;2023-05-20T00:12:05;103054.19;;;13.84;100.00
64352;BME280;50680;52.626;-8.668;2023-05-20T00:14:32;103057.88;;;13.80;100.00
64352;BME280;50680;52.626;-8.668;2023-05-20T00:16:59;103064.34;;;13.71;100.00
64352;BME280;50680;52.626;-8.668;2023-05-20T00:19:26;103061.47;;;13.77;100.00
64352;BME280;50680;52.626;-8.668;2023-05-20T00:21:54;103052.09;;;13.68;100.00
64352;BME280;50680;52.626;-8.668;2023-05-20T00:24:24;103063.41;;;13.72;100.00
64352;BME280;50680;52.626;-8.668;2023-05-20T00:26:51;103061.94;;;13.63;100.00
64352;BME280;50680;52.626;-8.668;2023-05-20T00:29:19;103055.91;;;13.60;100.00
64352;BME280;50680;52.626;-8.668;2023-05-20T00:31:46;103059.22;;;13.66;100.00
64352;BME280;50680;52.626;-8.668;2023-05-20T00:34:13;103065.19;;;13.71;100.00
64352;BME280;50680;52.626;-8.668;2023-05-20T00:36:40;103060.66;;;13.75;100.00
64352;BME280;50680;52.626;-8.668;2023-05-20T00:39:08;103063.28;;;13.75;100.00
64352;BME280;50680;52.626;-8.668;2023-05-20T00:41:35;103065.84;;;13.78;100.00
64352;BME280;50680;52.626;-8.668;2023-05-20T00:44:02;103064.22;;;13.74;100.00
64352;BME280;50680;52.626;-8.668;2023-05-20T00:46:29;103055.50;;;13.72;100.00
64352;BME280;50680;52.626;-8.668;2023-05-20T00:48:56;103044.75;;;13.78;100.00
64352;BME280;50680;52.626;-8.668;2023-05-20T00:51:24;103048.63;;;13.68;100.00
64352;BME280;50680;52.626;-8.668;2023-05-20T00:53:51;103048.47;;;13.72;100.00
64352;BME280;50680;52.626;-8.668;2023-05-20T00:56:19;103043.00;;;13.77;100.00
64352;BME280;50680;52.626;-8.668;2023-05-20T00:58:48;103043.78;;;13.81;100.00
64352;BME280;50680;52.626;-8.668;2023-05-20T01:01:16;103043.41;;;13.91;100.00
64352;BME280;50680;52.626;-8.668;2023-05-20T01:03:43;103045.09;;;13.92;100.00
64352;BME280;50680;52.626;-8.668;2023-05-20T01:06:10;103032.94;;;13.88;100.00
64352;BME280;50680;52.626;-8.668;2023-05-20T01:08:37;103031.44;;;13.81;100.00
64352;BME280;50680;52.626;-8.668;2023-05-20T01:11:10;103029.78;;;13.79;100.00
64352;BME280;50680;52.626;-8.668;2023-05-20T01:13:46;103032.47;;;13.77;100.00
64352;BME280;50680;52.626;-8.668;2023-05-20T01:16:16;103035.69;;;13.85;100.00
64352;BME280;50680;52.626;-8.668;2023-05-20T01:18:45;103037.72;;;13.77;100.00
64352;BME280;50680;52.626;-8.668;2023-05-20T01:21:14;103033.41;;;13.76;100.00
64352;BME280;50680;52.626;-8.668;2023-05-20T01:23:42;103020.41;;;13.70;100.00
64352;BME280;50680;52.626;-8.668;2023-05-20T01:26:10;103018.31;;;13.80;100.00
64352;BME280;50680;52.626;-8.668;2023-05-20T01:28:40;103018.28;;;13.81;100.00
64352;BME280;50680;52.626;-8.668;2023-05-20T01:31:19;103013.91;;;13.80;100.00
64352;BME280;50680;52.626;-8.668;2023-05-20T01:33:50;103016.88;;;13.71;100.00
64352;BME280;50680;52.626;-8.668;2023-05-20T01:36:21;103011.81;;;13.65;100.00
64352;BME280;50680;52.626;-8.668;2023-05-20T01:38:49;102994.50;;;13.58;100.00
64352;BME280;50680;52.626;-8.668;2023-05-20T01:41:17;102993.59;;;13.59;100.00
64352;BME280;50680;52.626;-8.668;2023-05-20T01:43:44;102990.06;;;13.58;100.00
64352;BME280;50680;52.626;-8.668;2023-05-20T01:46:11;102997.03;;;13.61;100.00
64352;BME280;50680;52.626;-8.668;2023-05-20T01:48:38;102991.81;;;13.59;100.00
64352;BME280;50680;52.626;-8.668;2023-05-20T01:51:05;103003.94;;;13.63;100.00
64352;BME280;50680;52.626;-8.668;2023-05-20T01:53:32;103001.41;;;13.62;100.00
64352;BME280;50680;52.626;-8.668;2023-05-20T01:55:59;102997.88;;;13.61;100.00
64352;BME280;50680;52.626;-8.668;2023-05-20T01:58:26;103003.91;;;13.65;100.00
64352;BME280;50680;52.626;-8.668;2023-05-20T02:00:53;102997.47;;;13.72;100.00
64352;BME280;50680;52.626;-8.668;2023-05-20T02:03:20;102996.78;;;13.67;100.00
64352;BME280;50680;52.626;-8.668;2023-05-20T02:05:47;102995.09;;;13.66;100.00
64352;BME280;50680;52.626;-8.668;2023-05-20T02:08:14;103000.34;;;13.66;100.00
64352;BME280;50680;52.626;-8.668;2023-05-20T02:10:41;102994.50;;;13.58;100.00
64352;BME280;50680;52.626;-8.668;2023-05-20T02:13:08;102994.50;;;13.58;100.00
64352;BME280;50680;52.626;-8.668;2023-05-20T02:15:35;102993.75;;;13.54;100.00
64352;BME280;50680;52.626;-8.668;2023-05-20T02:18:02;102989.44;;;13.51;100.00
64352;BME280;50680;52.626;-8.668;2023-05-20T02:20:34;102994.94;;;13.45;100.00
64352;BME280;50680;52.626;-8.668;2023-05-20T02:23:02;102987.63;;;13.53;100.00
64352;BME280;50680;52.626;-8.668;2023-05-20T02:25:31;102984.19;;;13.51;100.00
64352;BME280;50680;52.626;-8.668;2023-05-20T02:27:58;102985.41;;;13.41;100.00
64352;BME280;50680;52.626;-8.668;2023-05-20T02:30:26;102986.97;;;13.47;100.00
64352;BME280;50680;52.626;-8.668;2023-05-20T02:32:52;102987.91;;;13.44;100.00
64352;BME280;50680;52.626;-8.668;2023-05-20T02:35:20;102992.13;;;13.50;100.00
64352;BME280;50680;52.626;-8.668;2023-05-20T02:37:46;102988.69;;;13.48;100.00
64352;BME280;50680;52.626;-8.668;2023-05-20T02:40:13;102989.56;;;13.48;100.00
64352;BME280;50680;52.626;-8.668;2023-05-20T02:42:40;102983.31;;;13.51;100.00
64352;BME280;50680;52.626;-8.668;2023-05-20T02:45:08;102986.69;;;13.54;100.00
64352;BME280;50680;52.626;-8.668;2023-05-20T02:47:35;102977.88;;;13.56;100.00
64352;BME280;50680;52.626;-8.668;2023-05-20T02:50:02;102973.56;;;13.53;100.00
64352;BME280;50680;52.626;-8.668;2023-05-20T02:52:29;102967.44;;;13.52;100.00
64352;BME280;50680;52.626;-8.668;2023-05-20T02:54:56;102959.53;;;13.52;100.00
64352;BME280;50680;52.626;-8.668;2023-05-20T02:57:23;102962.97;;;13.54;100.00
64352;BME280;50680;52.626;-8.668;2023-05-20T02:59:50;102960.91;;;13.63;100.00
64352;BME280;50680;52.626;-8.668;2023-05-20T03:02:18;102958.34;;;13.61;100.00
64352;BME280;50680;52.626;-8.668;2023-05-20T03:04:45;102954.03;;;13.59;100.00
64352;BME280;50680;52.626;-8.668;2023-05-20T03:07:13;102952.31;;;13.58;100.00
64352;BME280;50680;52.626;-8.668;2023-05-20T03:09:43;102954.16;;;13.56;100.00
64352;BME280;50680;52.626;-8.668;2023-05-20T03:12:10;102948.03;;;13.55;100.00
64352;BME280;50680;52.626;-8.668;2023-05-20T03:14:37;102947.16;;;13.54;100.00
64352;BME280;50680;52.626;-8.668;2023-05-20T03:17:04;102949.31;;;13.43;100.00
64352;BME280;50680;52.626;-8.668;2023-05-20T03:19:31;102937.22;;;13.38;100.00
64352;BME280;50680;52.626;-8.668;2023-05-20T03:21:58;102937.28;;;13.36;100.00
64352;BME280;50680;52.626;-8.668;2023-05-20T03:24:28;102942.59;;;13.34;100.00
64352;BME280;50680;52.626;-8.668;2023-05-20T03:26:54;102936.66;;;13.28;100.00
64352;BME280;50680;52.626;-8.668;2023-05-20T03:29:22;102940.25;;;13.25;100.00
64352;BME280;50680;52.626;-8.668;2023-05-20T03:31:49;102940.03;;;13.33;100.00
64352;BME280;50680;52.626;-8.668;2023-05-20T03:34:16;102933.16;;;13.27;100.00
64352;BME280;50680;52.626;-8.668;2023-05-20T03:36:43;102928.94;;;13.22;100.00
64352;BME280;50680;52.626;-8.668;2023-05-20T03:39:10;102936.06;;;13.20;100.00
64352;BME280;50680;52.626;-8.668;2023-05-20T03:41:37;102939.34;;;13.26;100.00
64352;BME280;50680;52.626;-8.668;2023-05-20T03:44:04;102937.69;;;13.24;100.00
64352;BME280;50680;52.626;-8.668;2023-05-20T03:46:31;102936.28;;;13.13;100.00
64352;BME280;50680;52.626;-8.668;2023-05-20T03:49:00;102937.19;;;13.12;100.00
64352;BME280;50680;52.626;-8.668;2023-05-20T03:51:30;102927.72;;;13.07;100.00
64352;BME280;50680;52.626;-8.668;2023-05-20T03:53:57;102930.03;;;13.16;100.00
64352;BME280;50680;52.626;-8.668;2023-05-20T03:56:24;102931.06;;;13.12;100.00
64352;BME280;50680;52.626;-8.668;2023-05-20T03:58:51;102941.56;;;13.13;100.00
64352;BME280;50680;52.626;-8.668;2023-05-20T04:01:19;102938.97;;;13.12;100.00
64352;BME280;50680;52.626;-8.668;2023-05-20T04:03:46;102946.06;;;13.10;100.00
64352;BME280;50680;52.626;-8.668;2023-05-20T04:06:14;102954.72;;;13.13;100.00
64352;BME280;50680;52.626;-8.668;2023-05-20T04:08:41;102950.44;;;13.09;100.00
64352;BME280;50680;52.626;-8.668;2023-05-20T04:11:08;102941.41;;;13.16;100.00
64352;BME280;50680;52.626;-8.668;2023-05-20T04:13:35;102938.59;;;13.23;100.00
64352;BME280;50680;52.626;-8.668;2023-05-20T04:16:02;102927.44;;;13.14;100.00
64352;BME280;50680;52.626;-8.668;2023-05-20T04:18:31;102922.28;;;13.11;100.00
64352;BME280;50680;52.626;-8.668;2023-05-20T04:20:57;102915.16;;;13.15;100.00
64352;BME280;50680;52.626;-8.668;2023-05-20T04:23:27;102916.66;;;13.22;100.00
64352;BME280;50680;52.626;-8.668;2023-05-20T04:25:54;102919.16;;;13.25;100.00
64352;BME280;50680;52.626;-8.668;2023-05-20T04:28:22;102921.75;;;13.27;100.00
64352;BME280;50680;52.626;-8.668;2023-05-20T04:30:57;102915.47;;;13.32;100.00
64352;BME280;50680;52.626;-8.668;2023-05-20T04:33:25;102917.63;;;13.20;100.00
64352;BME280;50680;52.626;-8.668;2023-05-20T04:35:52;102918.53;;;13.19;100.00
64352;BME280;50680;52.626;-8.668;2023-05-20T04:38:24;102914.03;;;13.22;100.00
64352;BME280;50680;52.626;-8.668;2023-05-20T04:40:58;102897.72;;;13.11;100.00
64352;BME280;50680;52.626;-8.668;2023-05-20T04:43:27;102912.34;;;13.20;100.00
64352;BME280;50680;52.626;-8.668;2023-05-20T04:45:56;102914.97;;;13.20;100.00
64352;BME280;50680;52.626;-8.668;2023-05-20T04:48:23;102919.34;;;13.21;100.00
64352;BME280;50680;52.626;-8.668;2023-05-20T04:50:51;102910.50;;;13.22;100.00
64352;BME280;50680;52.626;-8.668;2023-05-20T04:53:18;102922.88;;;13.20;100.00
64352;BME280;50680;52.626;-8.668;2023-05-20T04:55:48;102921.09;;;13.20;100.00
64352;BME280;50680;52.626;-8.668;2023-05-20T04:58:21;102922.63;;;13.27;100.00
64352;BME280;50680;52.626;-8.668;2023-05-20T05:00:50;102917.22;;;13.32;100.00
64352;BME280;50680;52.626;-8.668;2023-05-20T05:03:18;102915.97;;;13.42;100.00
64352;BME280;50680;52.626;-8.668;2023-05-20T05:05:45;102915.72;;;13.50;100.00
64352;BME280;50680;52.626;-8.668;2023-05-20T05:08:12;102915.75;;;13.48;100.00
64352;BME280;50680;52.626;-8.668;2023-05-20T05:10:39;102917.34;;;13.52;100.00
64352;BME280;50680;52.626;-8.668;2023-05-20T05:13:06;102921.66;;;13.55;100.00
64352;BME280;50680;52.626;-8.668;2023-05-20T05:15:33;102931.72;;;13.44;100.00
64352;BME280;50680;52.626;-8.668;2023-05-20T05:18:00;102935.16;;;13.46;100.00
64352;BME280;50680;52.626;-8.668;2023-05-20T05:20:27;102931.91;;;13.63;100.00
64352;BME280;50680;52.626;-8.668;2023-05-20T05:22:54;102929.38;;;13.60;100.00
64352;BME280;50680;52.626;-8.668;2023-05-20T05:25:22;102918.53;;;13.69;100.00
64352;BME280;50680;52.626;-8.668;2023-05-20T05:27:49;102925.50;;;13.70;100.00
64352;BME280;50680;52.626;-8.668;2023-05-20T05:30:16;102925.38;;;13.73;100.00
64352;BME280;50680;52.626;-8.668;2023-05-20T05:32:43;102918.38;;;13.72;100.00
64352;BME280;50680;52.626;-8.668;2023-05-20T05:35:11;102914.72;;;13.76;100.00
64352;BME280;50680;52.626;-8.668;2023-05-20T05:37:38;102919.72;;;13.84;100.00
64352;BME280;50680;52.626;-8.668;2023-05-20T05:40:06;102911.75;;;13.85;100.00
64352;BME280;50680;52.626;-8.668;2023-05-20T05:42:33;102910.47;;;13.96;100.00
64352;BME280;50680;52.626;-8.668;2023-05-20T05:45:00;102908.53;;;14.01;100.00
64352;BME280;50680;52.626;-8.668;2023-05-20T05:47:27;102912.94;;;14.00;100.00
64352;BME280;50680;52.626;-8.668;2023-05-20T05:49:58;102913.31;;;14.13;100.00
64352;BME280;50680;52.626;-8.668;2023-05-20T05:52:26;102909.78;;;14.14;100.00
64352;BME280;50680;52.626;-8.668;2023-05-20T05:54:53;102909.44;;;14.22;100.00
64352;BME280;50680;52.626;-8.668;2023-05-20T05:57:21;102917.94;;;14.30;100.00
64352;BME280;50680;52.626;-8.668;2023-05-20T05:59:48;102921.41;;;14.30;100.00
64352;BME280;50680;52.626;-8.668;2023-05-20T06:02:15;102921.06;;;14.40;100.00
64352;BME280;50680;52.626;-8.668;2023-05-20T06:04:42;102913.69;;;14.48;100.00
64352;BME280;50680;52.626;-8.668;2023-05-20T06:07:09;102915.19;;;14.55;100.00
64352;BME280;50680;52.626;-8.668;2023-05-20T06:09:37;102910.50;;;14.62;100.00
64352;BME280;50680;52.626;-8.668;2023-05-20T06:12:04;102907.56;;;14.70;100.00
64352;BME280;50680;52.626;-8.668;2023-05-20T06:14:31;102909.75;;;14.80;100.00
64352;BME280;50680;52.626;-8.668;2023-05-20T06:16:58;102906.44;;;14.75;100.00
64352;BME280;50680;52.626;-8.668;2023-05-20T06:19:25;102909.03;;;14.77;100.00
64352;BME280;50680;52.626;-8.668;2023-05-20T06:21:53;102897.88;;;14.91;100.00
64352;BME280;50680;52.626;-8.668;2023-05-20T06:24:19;102904.06;;;14.90;100.00
64352;BME280;50680;52.626;-8.668;2023-05-20T06:26:49;102903.16;;;14.91;100.00
64352;BME280;50680;52.626;-8.668;2023-05-20T06:29:16;102901.31;;;14.93;100.00
64352;BME280;50680;52.626;-8.668;2023-05-20T06:31:43;102901.25;;;14.94;100.00
64352;BME280;50680;52.626;-8.668;2023-05-20T06:34:10;102901.59;;;15.07;100.00
64352;BME280;50680;52.626;-8.668;2023-05-20T06:36:37;102907.44;;;15.14;100.00
64352;BME280;50680;52.626;-8.668;2023-05-20T06:39:04;102914.19;;;15.21;100.00
64352;BME280;50680;52.626;-8.668;2023-05-20T06:41:40;102911.66;;;15.38;100.00
64352;BME280;50680;52.626;-8.668;2023-05-20T06:44:07;102910.69;;;15.60;100.00
64352;BME280;50680;52.626;-8.668;2023-05-20T06:46:34;102910.03;;;15.75;100.00
64352;BME280;50680;52.626;-8.668;2023-05-20T06:49:01;102903.38;;;15.86;100.00
64352;BME280;50680;52.626;-8.668;2023-05-20T06:51:28;102889.06;;;15.90;100.00
64352;BME280;50680;52.626;-8.668;2023-05-20T06:53:55;102909.41;;;16.26;100.00
64352;BME280;50680;52.626;-8.668;2023-05-20T06:56:22;102907.53;;;16.28;100.00
64352;BME280;50680;52.626;-8.668;2023-05-20T06:58:49;102900.31;;;16.31;100.00
64352;BME280;50680;52.626;-8.668;2023-05-20T07:01:16;102896.34;;;16.40;100.00
64352;BME280;50680;52.626;-8.668;2023-05-20T07:03:44;102891.41;;;16.51;100.00
64352;BME280;50680;52.626;-8.668;2023-05-20T07:06:11;102888.06;;;16.65;100.00
64352;BME280;50680;52.626;-8.668;2023-05-20T07:08:38;102886.66;;;16.76;100.00
64352;BME280;50680;52.626;-8.668;2023-05-20T07:11:05;102876.31;;;16.88;100.00
64352;BME280;50680;52.626;-8.668;2023-05-20T07:13:32;102879.50;;;16.95;100.00
64352;BME280;50680;52.626;-8.668;2023-05-20T07:15:59;102879.28;;;17.00;100.00
64352;BME280;50680;52.626;-8.668;2023-05-20T07:18:26;102876.53;;;17.01;100.00
64352;BME280;50680;52.626;-8.668;2023-05-20T07:20:54;102879.88;;;17.05;100.00
64352;BME280;50680;52.626;-8.668;2023-05-20T07:23:23;102878.13;;;17.21;100.00
64352;BME280;50680;52.626;-8.668;2023-05-20T07:25:52;102880.25;;;17.15;100.00
64352;BME280;50680;52.626;-8.668;2023-05-20T07:28:21;102883.00;;;17.13;100.00
64352;BME280;50680;52.626;-8.668;2023-05-20T07:30:48;102886.88;;;17.23;100.00
64352;BME280;50680;52.626;-8.668;2023-05-20T07:33:21;102883.78;;;17.15;100.00
64352;BME280;50680;52.626;-8.668;2023-05-20T07:35:48;102880.66;;;17.07;100.00
64352;BME280;50680;52.626;-8.668;2023-05-20T07:38:15;102885.13;;;17.06;100.00
64352;BME280;50680;52.626;-8.668;2023-05-20T07:40:42;102876.47;;;16.85;100.00
64352;BME280;50680;52.626;-8.668;2023-05-20T07:43:09;102878.25;;;16.85;100.00
64352;BME280;50680;52.626;-8.668;2023-05-20T07:45:36;102879.84;;;16.89;100.00
64352;BME280;50680;52.626;-8.668;2023-05-20T07:48:04;102876.94;;;16.94;100.00
64352;BME280;50680;52.626;-8.668;2023-05-20T07:50:35;102879.72;;;17.08;100.00
64352;BME280;50680;52.626;-8.668;2023-05-20T07:53:02;102888.13;;;17.16;100.00
64352;BME280;50680;52.626;-8.668;2023-05-20T07:55:29;102888.19;;;17.15;100.00
64352;BME280;50680;52.626;-8.668;2023-05-20T07:57:57;102878.50;;;17.31;100.00
64352;BME280;50680;52.626;-8.668;2023-05-20T08:00:24;102890.56;;;17.37;100.00
64352;BME280;50680;52.626;-8.668;2023-05-20T08:02:51;102894.84;;;17.23;100.00
64352;BME280;50680;52.626;-8.668;2023-05-20T08:05:18;102895.88;;;17.37;100.00
64352;BME280;50680;52.626;-8.668;2023-05-20T08:07:45;102891.22;;;17.24;100.00
64352;BME280;50680;52.626;-8.668;2023-05-20T08:10:12;102888.91;;;17.18;100.00
64352;BME280;50680;52.626;-8.668;2023-05-20T08:12:39;102883.47;;;17.04;100.00
64352;BME280;50680;52.626;-8.668;2023-05-20T08:15:07;102892.59;;;16.98;100.00
64352;BME280;50680;52.626;-8.668;2023-05-20T08:17:34;102892.06;;;16.91;100.00
64352;BME280;50680;52.626;-8.668;2023-05-20T08:20:01;102893.44;;;16.81;100.00
64352;BME280;50680;52.626;-8.668;2023-05-20T08:22:28;102889.06;;;16.80;100.00
64352;BME280;50680;52.626;-8.668;2023-05-20T08:24:55;102886.69;;;16.93;100.00
64352;BME280;50680;52.626;-8.668;2023-05-20T08:27:22;102889.31;;;16.93;100.00
64352;BME280;50680;52.626;-8.668;2023-05-20T08:29:49;102892.59;;;16.98;100.00
64352;BME280;50680;52.626;-8.668;2023-05-20T08:32:16;102886.81;;;17.07;100.00
64352;BME280;50680;52.626;-8.668;2023-05-20T08:34:43;102880.00;;;17.19;100.00
64352;BME280;50680;52.626;-8.668;2023-05-20T08:37:10;102883.31;;;17.40;100.00
64352;BME280;50680;52.626;-8.668;2023-05-20T08:39:37;102892.63;;;17.47;100.00
64352;BME280;50680;52.626;-8.668;2023-05-20T08:42:04;102892.69;;;17.63;100.00
64352;BME280;50680;52.626;-8.668;2023-05-20T08:44:33;102890.22;;;17.76;100.00
64352;BME280;50680;52.626;-8.668;2023-05-20T08:47:02;102882.69;;;17.84;100.00
64352;BME280;50680;52.626;-8.668;2023-05-20T08:49:30;102879.16;;;17.68;100.00
64352;BME280;50680;52.626;-8.668;2023-05-20T08:51:59;102880.72;;;17.72;100.00
64352;BME280;50680;52.626;-8.668;2023-05-20T08:54:40;102880.81;;;17.71;100.00
64352;BME280;50680;52.626;-8.668;2023-05-20T08:57:10;102878.31;;;17.83;100.00
64352;BME280;50680;52.626;-8.668;2023-05-20T08:59:43;102879.38;;;17.97;100.00
64352;BME280;50680;52.626;-8.668;2023-05-20T09:02:10;102876.47;;;18.01;100.00
64352;BME280;50680;52.626;-8.668;2023-05-20T09:04:38;102872.34;;;18.12;100.00
64352;BME280;50680;52.626;-8.668;2023-05-20T09:07:05;102865.38;;;18.25;100.00
64352;BME280;50680;52.626;-8.668;2023-05-20T09:09:33;102866.28;;;18.40;100.00
64352;BME280;50680;52.626;-8.668;2023-05-20T09:12:01;102865.50;;;18.54;100.00
64352;BME280;50680;52.626;-8.668;2023-05-20T09:14:30;102857.19;;;18.74;100.00
64352;BME280;50680;52.626;-8.668;2023-05-20T09:16:57;102864.56;;;19.00;100.00
64352;BME280;50680;52.626;-8.668;2023-05-20T09:19:25;102862.38;;;19.35;100.00
64352;BME280;50680;52.626;-8.668;2023-05-20T09:21:53;102872.31;;;19.89;100.00
64352;BME280;50680;52.626;-8.668;2023-05-20T09:24:25;102863.22;;;20.06;100.00
64352;BME280;50680;52.626;-8.668;2023-05-20T09:26:52;102856.91;;;20.21;100.00
64352;BME280;50680;52.626;-8.668;2023-05-20T09:29:20;102855.88;;;20.37;100.00
64352;BME280;50680;52.626;-8.668;2023-05-20T09:31:48;102858.00;;;20.44;100.00
64352;BME280;50680;52.626;-8.668;2023-05-20T09:34:16;102854.63;;;20.55;100.00
64352;BME280;50680;52.626;-8.668;2023-05-20T09:36:43;102844.69;;;20.57;100.00
64352;BME280;50680;52.626;-8.668;2023-05-20T09:39:15;102835.28;;;20.66;100.00
64352;BME280;50680;52.626;-8.668;2023-05-20T09:41:54;102832.06;;;20.87;100.00
64352;BME280;50680;52.626;-8.668;2023-05-20T09:44:22;102835.69;;;20.98;100.00
64352;BME280;50680;52.626;-8.668;2023-05-20T09:46:50;102830.66;;;21.07;100.00
64352;BME280;50680;52.626;-8.668;2023-05-20T09:49:21;102842.09;;;21.09;100.00
64352;BME280;50680;52.626;-8.668;2023-05-20T09:51:50;102840.41;;;21.08;100.00
64352;BME280;50680;52.626;-8.668;2023-05-20T09:54:18;102833.94;;;21.23;100.00
64352;BME280;50680;52.626;-8.668;2023-05-20T09:56:46;102834.47;;;21.28;100.00
64352;BME280;50680;52.626;-8.668;2023-05-20T09:59:17;102826.66;;;21.38;100.00
64352;BME280;50680;52.626;-8.668;2023-05-20T10:01:47;102822.19;;;21.51;100.00
64352;BME280;50680;52.626;-8.668;2023-05-20T10:04:15;102829.63;;;21.59;100.00
64352;BME280;50680;52.626;-8.668;2023-05-20T10:12:23;102807.94;;;21.88;100.00
64352;BME280;50680;52.626;-8.668;2023-05-20T10:17:54;102799.34;;;22.55;100.00
64352;BME280;50680;52.626;-8.668;2023-05-20T10:20:27;102813.59;;;23.23;100.00
64352;BME280;50680;52.626;-8.668;2023-05-20T10:22:55;102808.97;;;23.48;100.00
64352;BME280;50680;52.626;-8.668;2023-05-20T10:25:27;102804.75;;;23.66;100.00
64352;BME280;50680;52.626;-8.668;2023-05-20T10:28:09;102801.22;;;24.10;100.00
64352;BME280;50680;52.626;-8.668;2023-05-20T10:30:37;102796.97;;;24.49;100.00
64352;BME280;50680;52.626;-8.668;2023-05-20T10:33:06;102801.13;;;24.74;100.00
64352;BME280;50680;52.626;-8.668;2023-05-20T10:35:34;102799.09;;;24.98;100.00
64352;BME280;50680;52.626;-8.668;2023-05-20T10:38:09;102797.81;;;25.02;100.00
64352;BME280;50680;52.626;-8.668;2023-05-20T10:40:36;102795.09;;;24.61;100.00
64352;BME280;50680;52.626;-8.668;2023-05-20T10:43:15;102798.06;;;24.05;100.00
64352;BME280;50680;52.626;-8.668;2023-05-20T10:45:49;102789.72;;;24.19;100.00
64352;BME280;50680;52.626;-8.668;2023-05-20T10:48:23;102791.72;;;23.73;100.00
64352;BME280;50680;52.626;-8.668;2023-05-20T10:50:54;102790.75;;;24.07;100.00
64352;BME280;50680;52.626;-8.668;2023-05-20T10:53:24;102779.75;;;24.52;100.00
64352;BME280;50680;52.626;-8.668;2023-05-20T10:55:59;102793.75;;;25.07;100.00
64352;BME280;50680;52.626;-8.668;2023-05-20T10:58:26;102784.94;;;25.36;100.00
64352;BME280;50680;52.626;-8.668;2023-05-20T11:00:54;102784.75;;;25.98;100.00
64352;BME280;50680;52.626;-8.668;2023-05-20T11:03:21;102783.97;;;26.35;100.00
64352;BME280;50680;52.626;-8.668;2023-05-20T11:05:49;102782.41;;;26.42;100.00
64352;BME280;50680;52.626;-8.668;2023-05-20T11:08:17;102780.47;;;26.81;100.00
64352;BME280;50680;52.626;-8.668;2023-05-20T11:10:55;102775.63;;;26.28;100.00
64352;BME280;50680;52.626;-8.668;2023-05-20T11:13:23;102784.44;;;25.71;100.00
64352;BME280;50680;52.626;-8.668;2023-05-20T11:15:51;102772.72;;;25.92;100.00
64352;BME280;50680;52.626;-8.668;2023-05-20T11:18:18;102773.06;;;25.29;100.00
64352;BME280;50680;52.626;-8.668;2023-05-20T11:20:46;102770.78;;;24.11;100.00
64352;BME280;50680;52.626;-8.668;2023-05-20T11:23:13;102775.34;;;23.55;100.00
64352;BME280;50680;52.626;-8.668;2023-05-20T11:25:41;102769.06;;;23.34;100.00
64352;BME280;50680;52.626;-8.668;2023-05-20T11:28:12;102767.66;;;23.07;100.00
64352;BME280;50680;52.626;-8.668;2023-05-20T11:30:41;102772.84;;;23.20;100.00
64352;BME280;50680;52.626;-8.668;2023-05-20T11:33:11;102763.41;;;23.59;100.00
64352;BME280;50680;52.626;-8.668;2023-05-20T11:35:44;102757.88;;;24.05;100.00
64352;BME280;50680;52.626;-8.668;2023-05-20T11:38:12;102752.72;;;24.55;100.00
64352;BME280;50680;52.626;-8.668;2023-05-20T11:40:44;102762.91;;;24.19;100.00
64352;BME280;50680;52.626;-8.668;2023-05-20T11:43:17;102765.53;;;23.88;100.00
64352;BME280;50680;52.626;-8.668;2023-05-20T11:45:46;102753.09;;;24.29;100.00
64352;BME280;50680;52.626;-8.668;2023-05-20T11:48:14;102752.91;;;24.63;100.00
64352;BME280;50680;52.626;-8.668;2023-05-20T11:50:42;102749.19;;;24.85;100.00
64352;BME280;50680;52.626;-8.668;2023-05-20T11:53:14;102747.56;;;25.13;100.00
64352;BME280;50680;52.626;-8.668;2023-05-20T11:58:20;102744.53;;;25.38;100.00
64352;BME280;50680;52.626;-8.668;2023-05-20T12:00:47;102742.56;;;25.69;100.00
64352;BME280;50680;52.626;-8.668;2023-05-20T12:03:24;102736.06;;;25.91;100.00
64352;BME280;50680;52.626;-8.668;2023-05-20T12:05:52;102745.09;;;26.19;100.00
64352;BME280;50680;52.626;-8.668;2023-05-20T12:08:19;102731.59;;;26.39;100.00
64352;BME280;50680;52.626;-8.668;2023-05-20T12:10:45;102730.72;;;26.01;100.00
64352;BME280;50680;52.626;-8.668;2023-05-20T12:13:12;102736.91;;;25.62;100.00
64352;BME280;50680;52.626;-8.668;2023-05-20T12:15:39;102725.06;;;25.45;100.00
64352;BME280;50680;52.626;-8.668;2023-05-20T12:18:06;102722.41;;;25.05;100.00
64352;BME280;50680;52.626;-8.668;2023-05-20T12:20:33;102714.03;;;24.88;100.00
64352;BME280;50680;52.626;-8.668;2023-05-20T12:23:02;102710.25;;;25.10;100.00
64352;BME280;50680;52.626;-8.668;2023-05-20T12:25:30;102706.00;;;25.18;100.00
64352;BME280;50680;52.626;-8.668;2023-05-20T12:27:58;102696.13;;;25.08;100.00
64352;BME280;50680;52.626;-8.668;2023-05-20T12:30:25;102701.28;;;24.50;100.00
64352;BME280;50680;52.626;-8.668;2023-05-20T12:32:52;102700.72;;;24.25;100.00
64352;BME280;50680;52.626;-8.668;2023-05-20T12:35:36;102693.69;;;24.03;100.00
64352;BME280;50680;52.626;-8.668;2023-05-20T12:38:03;102694.03;;;24.40;100.00
64352;BME280;50680;52.626;-8.668;2023-05-20T12:40:31;102698.47;;;24.82;100.00
64352;BME280;50680;52.626;-8.668;2023-05-20T12:43:00;102701.25;;;25.21;100.00
64352;BME280;50680;52.626;-8.668;2023-05-20T12:45:28;102698.28;;;24.64;100.00
64352;BME280;50680;52.626;-8.668;2023-05-20T12:47:55;102698.09;;;25.06;100.00